Time;durP1;ratioP1;P1;durP2;ratioP2;P2;SDS_P1;SDS_P2;PMS_P1;PMS_P2;Temp;Humidity;BMP_temperature;BMP_pressure;BME280_temperature;BME280_humidity;BME280_pressure;Samples;Min_cycle;Max_cycle;Signal;HPM_P1;HPM_P2
2022/08/03 00:00:26;;;;;;;8.40;2.20;;;;;;;16.49;73.11;100520.31;107502;1266;22535;-78
2022/08/03 00:03:06;;;;;;;8.30;2.60;;;;;;;16.45;73.35;100525.16;107609;1268;24590;-79
2022/08/03 00:05:38;;;;;;;9.80;2.60;;;;;;;16.41;73.35;100522.41;107539;1268;22555;-79
2022/08/03 00:08:09;;;;;;;7.90;2.10;;;;;;;16.38;73.51;100521.13;107581;1268;22678;-79
2022/08/03 00:10:42;;;;;;;8.60;2.20;;;;;;;16.36;73.62;100522.14;107510;1268;22530;-79
2022/08/03 00:13:13;;;;;;;6.10;2.00;;;;;;;16.33;73.73;100521.52;107413;1268;24354;-80
2022/08/03 00:15:45;;;;;;;7.20;2.20;;;;;;;16.29;73.74;100520.55;107605;1268;24315;-79
2022/08/03 00:18:16;;;;;;;7.50;2.40;;;;;;;16.25;73.95;100521.32;107587;1268;22516;-78
2022/08/03 00:20:48;;;;;;;11.00;2.50;;;;;;;16.20;73.91;100522.29;107467;1268;22526;-79
2022/08/03 00:23:19;;;;;;;7.50;2.10;;;;;;;16.17;73.96;100522.95;107566;1268;22549;-78
2022/08/03 00:25:50;;;;;;;9.10;2.30;;;;;;;16.13;74.16;100520.89;107408;1268;22671;-79
2022/08/03 00:28:23;;;;;;;7.20;2.20;;;;;;;16.10;74.05;100524.84;107166;1268;22547;-78
2022/08/03 00:30:55;;;;;;;6.60;2.10;;;;;;;16.07;74.19;100521.52;107604;1268;24168;-79
2022/08/03 00:33:29;;;;;;;7.20;2.10;;;;;;;16.05;74.27;100524.33;107563;1268;22652;-80
2022/08/03 00:36:01;;;;;;;10.60;2.90;;;;;;;16.03;74.25;100521.71;108092;1267;25366;-79
2022/08/03 00:38:32;;;;;;;9.70;3.00;;;;;;;15.99;74.30;100519.80;107731;1267;22552;-80
2022/08/03 00:41:03;;;;;;;8.30;2.50;;;;;;;15.95;74.52;100518.48;107728;1268;22481;-80
2022/08/03 00:43:35;;;;;;;8.00;2.50;;;;;;;15.92;74.63;100518.94;107536;1267;22561;-78
2022/08/03 00:46:06;;;;;;;8.60;2.50;;;;;;;15.88;74.76;100520.00;107460;1267;22512;-79
2022/08/03 00:48:37;;;;;;;9.40;2.50;;;;;;;15.85;74.69;100517.73;107418;1266;24056;-79
2022/08/03 00:51:08;;;;;;;7.30;2.70;;;;;;;15.81;74.80;100519.22;107504;1268;22685;-78
2022/08/03 00:53:41;;;;;;;9.40;2.10;;;;;;;15.78;74.89;100522.73;107524;1268;22779;-79
2022/08/03 00:56:15;;;;;;;6.20;1.90;;;;;;;15.75;75.02;100523.09;107600;1268;24807;-79
2022/08/03 00:58:47;;;;;;;9.60;2.10;;;;;;;15.73;74.88;100522.67;107566;1268;25863;-79
2022/08/03 01:01:18;;;;;;;7.80;2.30;;;;;;;15.69;74.98;100522.21;107500;1267;22823;-79
2022/08/03 01:03:50;;;;;;;5.80;1.80;;;;;;;15.65;75.06;100516.16;107376;1268;25411;-79
2022/08/03 01:06:32;;;;;;;5.90;2.00;;;;;;;15.62;75.42;100517.11;107494;1268;22551;-80
2022/08/03 01:09:09;;;;;;;5.20;1.70;;;;;;;15.59;75.41;100519.47;107438;1268;25323;-78
2022/08/03 01:11:48;;;;;;;7.80;2.30;;;;;;;15.58;75.35;100518.70;107491;1268;22538;-79
2022/08/03 01:14:25;;;;;;;9.30;1.90;;;;;;;15.54;75.43;100517.40;107769;1268;22522;-78
2022/08/03 01:17:00;;;;;;;10.80;2.40;;;;;;;15.50;75.82;100514.95;107331;1267;22656;-79
2022/08/03 01:19:54;;;;;;;6.80;2.20;;;;;;;15.48;75.88;100515.64;107181;1268;22561;-79
2022/08/03 01:22:53;;;;;;;6.30;1.90;;;;;;;15.46;75.82;100516.15;107252;1267;26511;-78
2022/08/03 01:25:40;;;;;;;7.30;1.80;;;;;;;15.43;76.21;100517.55;107400;1268;22563;-78
2022/08/03 01:28:34;;;;;;;7.70;2.20;;;;;;;15.39;76.18;100516.96;107500;1267;25370;-79
2022/08/03 01:31:08;;;;;;;6.60;2.60;;;;;;;15.36;76.27;100514.39;107367;1268;22689;-78
2022/08/03 01:33:43;;;;;;;7.10;2.10;;;;;;;15.33;76.27;100513.52;107384;1268;22537;-79
2022/08/03 01:36:17;;;;;;;10.50;2.60;;;;;;;15.30;76.36;100511.66;107910;1268;22596;-78
2022/08/03 01:38:57;;;;;;;5.90;2.10;;;;;;;15.25;76.60;100510.41;107464;1266;24285;-78
2022/08/03 01:41:33;;;;;;;5.20;1.90;;;;;;;15.23;76.82;100508.55;107430;1266;22542;-78
2022/08/03 01:44:08;;;;;;;8.60;2.00;;;;;;;15.21;76.72;100507.52;107450;1268;22648;-79
2022/08/03 01:46:40;;;;;;;6.50;2.20;;;;;;;15.18;76.75;100505.38;107375;1266;22567;-79
2022/08/03 01:49:13;;;;;;;5.80;2.00;;;;;;;15.18;76.78;100508.63;107355;1268;24373;-79
2022/08/03 01:51:47;;;;;;;8.40;2.10;;;;;;;15.16;76.90;100501.47;107624;1267;25870;-79
2022/08/03 01:54:20;;;;;;;8.20;2.30;;;;;;;15.15;77.04;100503.52;107371;1267;25399;-78
2022/08/03 01:56:55;;;;;;;8.60;2.30;;;;;;;15.13;77.02;100504.21;107310;1268;22692;-78
2022/08/03 01:59:29;;;;;;;7.80;2.00;;;;;;;15.11;77.13;100502.16;107286;1266;22638;-78
2022/08/03 02:02:03;;;;;;;8.20;2.60;;;;;;;15.09;77.16;100502.20;107321;1268;25404;-80
2022/08/03 02:04:35;;;;;;;9.80;2.80;;;;;;;15.07;77.41;100498.72;107368;1268;22621;-78
2022/08/03 02:07:08;;;;;;;9.20;3.00;;;;;;;15.05;77.54;100496.86;107418;1268;26937;-78
2022/08/03 02:09:41;;;;;;;7.30;2.80;;;;;;;15.04;77.72;100495.07;107247;1268;25402;-79
2022/08/03 02:12:15;;;;;;;12.10;3.20;;;;;;;15.03;77.87;100495.06;107336;1268;22726;-79
2022/08/03 02:14:48;;;;;;;7.30;2.40;;;;;;;15.02;77.75;100494.61;107330;1268;22652;-79
2022/08/03 02:17:21;;;;;;;7.90;2.80;;;;;;;15.00;78.02;100490.60;107302;1268;26746;-78
2022/08/03 02:19:54;;;;;;;9.70;2.80;;;;;;;14.98;78.21;100482.52;107286;1266;22544;-78
2022/08/03 02:22:27;;;;;;;9.90;2.50;;;;;;;14.96;78.40;100483.42;107307;1268;24221;-78
2022/08/03 02:24:58;;;;;;;7.70;2.50;;;;;;;14.93;78.35;100483.67;107370;1267;22524;-79
2022/08/03 02:27:33;;;;;;;7.00;2.20;;;;;;;14.92;78.45;100480.04;107332;1268;22778;-79
2022/08/03 02:30:08;;;;;;;8.20;2.10;;;;;;;14.90;78.55;100483.19;107286;1268;22716;-79
2022/08/03 02:32:44;;;;;;;11.70;2.80;;;;;;;14.88;78.70;100484.10;107364;1267;25387;-78
2022/08/03 02:35:21;;;;;;;9.10;2.30;;;;;;;14.86;78.76;100483.28;107427;1267;22534;-79
2022/08/03 02:37:58;;;;;;;9.50;2.40;;;;;;;14.85;78.86;100487.51;107249;1268;26593;-79
2022/08/03 02:40:32;;;;;;;7.10;2.10;;;;;;;14.84;79.03;100485.00;107158;1268;22598;-79
2022/08/03 02:43:07;;;;;;;7.30;2.30;;;;;;;14.84;78.93;100481.94;107705;1266;22547;-79
2022/08/03 02:45:44;;;;;;;6.70;2.30;;;;;;;14.84;79.09;100482.35;107288;1267;22530;-79
2022/08/03 02:48:21;;;;;;;9.30;2.30;;;;;;;14.84;79.22;100478.05;107305;1267;22784;-79
2022/08/03 02:50:56;;;;;;;7.60;2.20;;;;;;;14.85;79.38;100482.55;107236;1268;25470;-79
2022/08/03 02:53:28;;;;;;;8.70;2.90;;;;;;;14.85;79.71;100485.83;107310;1267;23852;-79
2022/08/03 02:56:02;;;;;;;10.90;3.40;;;;;;;14.86;79.63;100486.54;107190;1267;22610;-78
2022/08/03 02:58:34;;;;;;;6.60;2.70;;;;;;;14.85;79.96;100489.20;107273;1267;22670;-79
2022/08/03 03:01:06;;;;;;;7.90;2.60;;;;;;;14.86;80.22;100490.11;107233;1267;22629;-79
2022/08/03 03:03:40;;;;;;;6.40;2.60;;;;;;;14.87;80.39;100491.91;107281;1267;24171;-79
2022/08/03 03:06:13;;;;;;;9.10;3.30;;;;;;;14.88;80.54;100492.98;107301;1267;22537;-78
2022/08/03 03:08:45;;;;;;;9.50;3.90;;;;;;;14.88;80.53;100492.94;107252;1267;22543;-78
2022/08/03 03:11:19;;;;;;;10.70;2.80;;;;;;;14.90;80.86;100496.63;107272;1267;23970;-78
2022/08/03 03:13:51;;;;;;;7.00;2.80;;;;;;;14.90;80.81;100500.47;107396;1267;22765;-79
2022/08/03 03:16:24;;;;;;;8.00;3.20;;;;;;;14.92;81.00;100495.26;107589;1267;24103;-79
2022/08/03 03:18:56;;;;;;;15.70;4.00;;;;;;;14.94;81.08;100494.66;106997;1256;22595;-77
2022/08/03 03:21:29;;;;;;;9.60;3.50;;;;;;;14.95;81.23;100494.26;106442;1269;22528;-77
2022/08/03 03:24:05;;;;;;;8.50;3.40;;;;;;;14.96;81.50;100490.23;106524;1267;22534;-76
2022/08/03 03:26:37;;;;;;;11.90;4.40;;;;;;;14.99;81.69;100498.98;106623;1268;22587;-76
2022/08/03 03:29:09;;;;;;;19.60;4.50;;;;;;;15.01;81.83;100495.16;106419;1270;22729;-76
2022/08/03 03:31:40;;;;;;;10.40;3.50;;;;;;;15.01;82.12;100498.08;106434;1268;25232;-77
2022/08/03 03:34:12;;;;;;;16.00;4.40;;;;;;;15.03;82.09;100501.97;106416;1268;25442;-77
2022/08/03 03:36:43;;;;;;;13.90;4.70;;;;;;;15.05;82.21;100499.27;106473;1268;22528;-76
2022/08/03 03:39:15;;;;;;;11.30;4.70;;;;;;;15.08;82.47;100500.72;106464;1268;22519;-77
2022/08/03 03:41:47;;;;;;;12.90;4.40;;;;;;;15.10;82.48;100504.81;106525;1268;25391;-76
2022/08/03 03:44:18;;;;;;;14.60;4.90;;;;;;;15.12;82.76;100504.21;106659;1265;24249;-76
2022/08/03 03:46:49;;;;;;;12.90;4.00;;;;;;;15.14;82.74;100502.48;106461;1268;24264;-76
2022/08/03 03:49:21;;;;;;;17.80;5.20;;;;;;;15.17;82.87;100504.64;106446;1267;24429;-76
2022/08/03 03:51:54;;;;;;;15.40;5.10;;;;;;;15.20;83.15;100507.01;106391;1268;23104;-75
2022/08/03 03:54:25;;;;;;;18.30;5.10;;;;;;;15.23;83.25;100505.95;106488;1268;22655;-76
2022/08/03 03:56:56;;;;;;;12.90;6.30;;;;;;;15.26;83.33;100503.44;106723;1268;24245;-76
2022/08/03 03:59:28;;;;;;;19.10;7.50;;;;;;;15.30;83.25;100506.48;107554;1268;25911;-77
2022/08/03 04:02:00;;;;;;;15.70;5.80;;;;;;;15.34;83.21;100504.92;107278;1265;22656;-77
2022/08/03 04:13:09;;;;;;;17.00;7.40;;;;;;;15.48;83.77;100503.77;106606;1268;22526;-75
2022/08/03 04:15:42;;;;;;;16.40;6.80;;;;;;;15.51;83.65;100507.52;106547;1268;22538;-75
2022/08/03 04:18:15;;;;;;;11.60;6.00;;;;;;;15.54;83.83;100505.48;106575;1267;25392;-75
2022/08/03 04:20:50;;;;;;;12.40;6.80;;;;;;;15.57;83.75;100506.06;106441;1268;22535;-76
2022/08/03 04:23:25;;;;;;;12.30;5.70;;;;;;;15.59;83.84;100506.52;106508;1268;22531;-75
2022/08/03 04:25:59;;;;;;;17.10;8.60;;;;;;;15.63;83.95;100508.98;106487;1268;24319;-75
2022/08/03 04:28:31;;;;;;;14.50;7.00;;;;;;;15.66;84.01;100508.64;106542;1268;22575;-76
2022/08/03 04:31:04;;;;;;;14.60;7.20;;;;;;;15.69;84.05;100515.70;106517;1268;25560;-76
2022/08/03 04:33:38;;;;;;;18.40;7.30;;;;;;;15.72;84.10;100513.36;106548;1268;25239;-76
2022/08/03 04:36:14;;;;;;;18.70;6.80;;;;;;;15.75;84.19;100515.88;106744;1268;22594;-75
2022/08/03 04:39:02;;;;;;;14.90;7.20;;;;;;;15.77;84.12;100513.94;106537;1268;25397;-76
2022/08/03 04:41:35;;;;;;;17.10;7.00;;;;;;;15.82;84.40;100519.27;106520;1268;22548;-76
2022/08/03 04:44:07;;;;;;;15.10;7.00;;;;;;;15.85;84.69;100517.02;106622;1268;24302;-76
2022/08/03 04:46:40;;;;;;;19.30;6.80;;;;;;;15.88;84.67;100517.44;106601;1268;22532;-75
2022/08/03 04:49:12;;;;;;;16.20;7.40;;;;;;;15.92;84.56;100520.77;106581;1268;22540;-76
2022/08/03 04:51:43;;;;;;;20.60;7.10;;;;;;;15.95;84.74;100519.95;106513;1268;22525;-76
2022/08/03 04:54:16;;;;;;;15.70;6.40;;;;;;;16.01;84.79;100520.48;106631;1268;25493;-76
2022/08/03 04:56:47;;;;;;;17.30;7.80;;;;;;;16.06;84.93;100521.25;106528;1268;25524;-76
2022/08/03 04:59:18;;;;;;;16.00;6.80;;;;;;;16.10;84.86;100525.36;106582;1267;25379;-76
2022/08/03 05:01:49;;;;;;;14.50;6.90;;;;;;;16.14;84.88;100527.61;106572;1268;23097;-77
2022/08/03 05:04:20;;;;;;;17.00;7.00;;;;;;;16.17;84.84;100525.00;106635;1268;22589;-76
2022/08/03 05:06:51;;;;;;;14.20;6.40;;;;;;;16.21;85.12;100523.33;106591;1268;25934;-77
2022/08/03 05:09:22;;;;;;;14.90;6.40;;;;;;;16.25;84.86;100522.96;106569;1268;25528;-76
2022/08/03 05:11:53;;;;;;;18.00;6.50;;;;;;;16.29;84.77;100518.30;106543;1268;22548;-75
2022/08/03 05:14:24;;;;;;;13.00;6.10;;;;;;;16.33;84.73;100520.92;106532;1268;22560;-76
2022/08/03 05:16:56;;;;;;;13.10;6.40;;;;;;;16.36;84.72;100520.50;106661;1268;25346;-76
2022/08/03 05:19:27;;;;;;;15.30;6.40;;;;;;;16.40;84.70;100521.42;106630;1268;22522;-75
2022/08/03 05:21:58;;;;;;;10.60;5.50;;;;;;;16.44;84.77;100524.30;106651;1268;23153;-76
2022/08/03 05:24:30;;;;;;;15.30;7.00;;;;;;;16.50;84.84;100523.49;106648;1268;24748;-75
2022/08/03 05:27:01;;;;;;;12.00;5.60;;;;;;;16.56;84.82;100524.30;106681;1268;22690;-76
2022/08/03 05:29:32;;;;;;;12.30;5.20;;;;;;;16.64;84.86;100526.41;106613;1268;22589;-77
2022/08/03 05:32:03;;;;;;;12.90;5.80;;;;;;;16.70;84.81;100523.02;106687;1268;22564;-76
2022/08/03 05:34:34;;;;;;;14.00;5.80;;;;;;;16.78;84.91;100520.39;106645;1268;22605;-76
2022/08/03 05:37:07;;;;;;;12.60;5.00;;;;;;;16.87;85.05;100522.31;106836;1267;22506;-77
2022/08/03 05:39:39;;;;;;;13.00;5.60;;;;;;;16.96;85.12;100527.23;106989;1268;22578;-77
2022/08/03 05:42:10;;;;;;;11.10;5.10;;;;;;;17.07;85.36;100525.41;106684;1268;25628;-76
2022/08/03 05:44:41;;;;;;;15.80;4.90;;;;;;;17.19;85.21;100533.11;106652;1267;22626;-77
2022/08/03 05:47:13;;;;;;;11.40;4.70;;;;;;;17.29;85.00;100530.65;106651;1267;22609;-77
2022/08/03 05:49:46;;;;;;;12.80;4.20;;;;;;;17.41;85.03;100533.54;106608;1268;23070;-77
2022/08/03 05:52:17;;;;;;;9.40;3.80;;;;;;;17.53;84.98;100535.16;106612;1268;26730;-77
2022/08/03 05:54:48;;;;;;;12.30;4.00;;;;;;;17.69;85.22;100536.73;106655;1268;22705;-77
2022/08/03 05:57:20;;;;;;;10.10;4.00;;;;;;;17.83;84.94;100538.70;106561;1268;24707;-77
2022/08/03 05:59:51;;;;;;;11.70;3.90;;;;;;;17.96;84.89;100541.40;106620;1267;25262;-77
2022/08/03 06:02:23;;;;;;;15.10;3.80;;;;;;;18.09;84.45;100539.56;106579;1267;22613;-77
2022/08/03 06:04:54;;;;;;;9.30;3.70;;;;;;;18.21;84.26;100541.48;106581;1267;22523;-77
2022/08/03 06:07:26;;;;;;;12.30;4.60;;;;;;;18.34;84.23;100538.77;106587;1268;22726;-77
2022/08/03 06:09:57;;;;;;;8.80;3.30;;;;;;;18.48;84.15;100539.09;106581;1268;25284;-76
2022/08/03 06:12:29;;;;;;;8.30;3.00;;;;;;;18.62;84.01;100539.29;106585;1268;27048;-77
2022/08/03 06:15:00;;;;;;;8.70;2.90;;;;;;;18.73;83.49;100541.84;106635;1267;25296;-77
2022/08/03 06:17:31;;;;;;;9.40;3.80;;;;;;;18.85;83.65;100544.38;106598;1267;22557;-77
2022/08/03 06:20:02;;;;;;;10.70;3.30;;;;;;;18.98;83.48;100541.56;106550;1268;22613;-77
2022/08/03 06:22:33;;;;;;;10.10;2.70;;;;;;;19.10;83.21;100542.75;106665;1268;22604;-77
2022/08/03 06:25:05;;;;;;;10.80;2.70;;;;;;;19.23;82.80;100544.92;106711;1268;24053;-77
2022/08/03 06:27:38;;;;;;;7.80;2.50;;;;;;;19.34;82.57;100543.33;106768;1268;22572;-76
2022/08/03 06:30:13;;;;;;;9.50;2.80;;;;;;;19.49;82.90;100543.98;106545;1267;24208;-76
2022/08/03 06:32:44;;;;;;;6.70;2.20;;;;;;;19.65;82.49;100542.80;106676;1265;25458;-77
2022/08/03 06:35:15;;;;;;;8.90;2.80;;;;;;;19.81;82.30;100542.21;106642;1268;22532;-76
2022/08/03 06:37:47;;;;;;;8.30;2.50;;;;;;;19.96;81.94;100543.48;106460;1267;25223;-76
2022/08/03 06:40:22;;;;;;;7.00;2.30;;;;;;;20.09;81.30;100543.80;106919;1267;22698;-76
2022/08/03 06:42:53;;;;;;;13.70;2.70;;;;;;;20.23;80.96;100547.66;106866;1267;25500;-76
2022/08/03 06:45:24;;;;;;;9.60;2.60;;;;;;;20.37;81.11;100549.04;106606;1268;23523;-75
2022/08/03 06:48:06;;;;;;;7.00;2.50;;;;;;;20.53;80.65;100545.33;106449;1268;22735;-76
2022/08/03 06:50:39;;;;;;;9.70;2.10;;;;;;;20.66;79.55;100548.34;106594;1268;22540;-77
2022/08/03 06:53:12;;;;;;;7.30;2.20;;;;;;;20.77;78.66;100547.63;106672;1265;22597;-77
2022/08/03 06:55:44;;;;;;;8.20;2.40;;;;;;;20.88;78.32;100547.53;106590;1267;22736;-76
2022/08/03 06:58:15;;;;;;;8.40;2.30;;;;;;;20.98;77.80;100548.64;106498;1268;22623;-76
2022/08/03 07:00:48;;;;;;;15.80;3.20;;;;;;;21.10;77.47;100546.35;106703;1267;23274;-76
2022/08/03 07:03:20;;;;;;;8.90;2.30;;;;;;;21.22;76.81;100548.11;106558;1265;23985;-76
2022/08/03 07:05:51;;;;;;;10.10;2.40;;;;;;;21.32;76.56;100549.21;106404;1268;22618;-76
2022/08/03 07:08:23;;;;;;;8.70;2.20;;;;;;;21.43;76.51;100548.61;106552;1265;25256;-77
2022/08/03 07:10:54;;;;;;;9.20;1.80;;;;;;;21.57;76.16;100544.36;106498;1268;25634;-77
2022/08/03 07:13:26;;;;;;;10.20;2.80;;;;;;;21.69;75.49;100541.60;106523;1267;22633;-77
2022/08/03 07:15:57;;;;;;;12.40;2.90;;;;;;;21.85;75.24;100541.96;106518;1268;25028;-76
2022/08/03 07:18:28;;;;;;;10.00;2.20;;;;;;;21.99;74.64;100541.60;106525;1265;22677;-76
2022/08/03 07:20:59;;;;;;;8.80;2.20;;;;;;;22.10;74.33;100541.24;106641;1267;25440;-77
2022/08/03 07:23:31;;;;;;;10.40;1.90;;;;;;;22.20;73.95;100538.42;106524;1267;23280;-77
2022/08/03 07:26:02;;;;;;;6.60;1.80;;;;;;;22.30;73.25;100543.23;106563;1267;25367;-76
2022/08/03 07:28:33;;;;;;;8.80;2.10;;;;;;;22.42;72.91;100543.11;106546;1268;24386;-76
2022/08/03 07:31:04;;;;;;;6.60;2.00;;;;;;;22.57;72.06;100547.39;106463;1267;25236;-77
2022/08/03 07:33:35;;;;;;;8.40;1.70;;;;;;;22.69;71.63;100542.40;106538;1266;22518;-76
2022/08/03 07:36:07;;;;;;;8.60;1.80;;;;;;;22.80;71.39;100539.23;106471;1267;22659;-77
2022/08/03 07:38:38;;;;;;;6.70;1.80;;;;;;;22.90;70.81;100539.19;106462;1267;23895;-76
2022/08/03 07:41:09;;;;;;;10.50;1.60;;;;;;;23.03;70.60;100537.78;106499;1267;23135;-77
2022/08/03 07:43:40;;;;;;;6.10;1.30;;;;;;;23.16;70.42;100541.04;106504;1267;22526;-76
2022/08/03 07:46:11;;;;;;;5.40;1.50;;;;;;;23.27;70.24;100537.67;106453;1267;25612;-77
2022/08/03 07:48:42;;;;;;;6.00;1.40;;;;;;;23.40;69.78;100538.38;106513;1267;24980;-77
2022/08/03 07:51:14;;;;;;;8.40;1.50;;;;;;;23.52;69.07;100538.70;106477;1267;25222;-77
2022/08/03 07:53:45;;;;;;;4.30;1.40;;;;;;;23.64;68.44;100539.29;106494;1267;22608;-77
2022/08/03 07:56:18;;;;;;;3.90;1.20;;;;;;;23.73;67.90;100538.23;106464;1267;25283;-77
2022/08/03 07:58:49;;;;;;;5.10;1.10;;;;;;;23.82;66.90;100539.83;106494;1267;22908;-77
2022/08/03 08:01:21;;;;;;;6.50;1.50;;;;;;;23.92;66.39;100538.44;106550;1267;22550;-77
2022/08/03 08:03:52;;;;;;;8.20;1.20;;;;;;;24.05;66.44;100541.85;106537;1267;22518;-77
2022/08/03 08:06:23;;;;;;;4.70;1.30;;;;;;;24.18;66.04;100544.17;106439;1267;23583;-77
2022/08/03 08:08:58;;;;;;;5.50;1.30;;;;;;;24.29;65.32;100540.74;106570;1267;23062;-77
2022/08/03 08:11:29;;;;;;;5.70;1.20;;;;;;;24.41;64.64;100539.35;106584;1267;22521;-77
2022/08/03 08:14:01;;;;;;;5.10;1.20;;;;;;;24.51;63.91;100537.80;106500;1267;24223;-77
2022/08/03 08:16:32;;;;;;;4.60;1.30;;;;;;;24.60;63.48;100542.14;106474;1267;25306;-77
2022/08/03 08:19:03;;;;;;;7.40;1.30;;;;;;;24.69;63.47;100542.39;106496;1265;25368;-76
2022/08/03 08:21:34;;;;;;;4.40;1.10;;;;;;;24.76;62.63;100541.27;106503;1268;22574;-77
2022/08/03 08:24:07;;;;;;;4.40;1.10;;;;;;;24.86;61.79;100539.20;106546;1268;24242;-77
2022/08/03 08:26:39;;;;;;;2.30;0.90;;;;;;;24.99;61.69;100537.21;106548;1268;22524;-76
2022/08/03 08:29:11;;;;;;;3.10;1.00;;;;;;;25.09;61.16;100539.03;106477;1265;22524;-77
2022/08/03 08:31:42;;;;;;;4.40;1.00;;;;;;;25.17;60.41;100538.63;106744;1265;22567;-77
2022/08/03 08:34:14;;;;;;;3.00;1.10;;;;;;;25.23;59.75;100535.13;106532;1265;23045;-77
2022/08/03 08:36:45;;;;;;;8.00;1.00;;;;;;;25.32;59.12;100539.55;106519;1265;24423;-77
2022/08/03 08:39:17;;;;;;;7.30;1.00;;;;;;;25.37;59.20;100535.42;106559;1265;23444;-77
2022/08/03 08:41:50;;;;;;;4.10;1.20;;;;;;;25.47;59.10;100538.05;106519;1265;26404;-77
2022/08/03 08:44:21;;;;;;;4.50;1.10;;;;;;;25.57;58.45;100536.77;106548;1268;25289;-78
2022/08/03 08:46:57;;;;;;;6.00;0.90;;;;;;;25.65;57.80;100535.93;107296;1268;22613;-78
2022/08/03 08:49:30;;;;;;;3.00;0.90;;;;;;;25.74;57.74;100539.59;107400;1267;24348;-78
2022/08/03 08:52:03;;;;;;;4.30;0.90;;;;;;;25.83;57.11;100534.11;106934;1265;22530;-75
2022/08/03 08:54:36;;;;;;;3.10;0.80;;;;;;;25.91;56.10;100531.28;106686;1265;24279;-77
2022/08/03 08:57:09;;;;;;;5.20;0.90;;;;;;;26.01;56.51;100532.88;106524;1266;22584;-77
2022/08/03 08:59:40;;;;;;;4.10;1.00;;;;;;;26.11;56.19;100529.64;106824;1268;25241;-78
2022/08/03 09:02:12;;;;;;;4.90;1.00;;;;;;;26.17;55.77;100529.60;106834;1268;24575;-78
2022/08/03 09:04:44;;;;;;;2.70;0.90;;;;;;;26.26;55.49;100532.02;106960;1265;25306;-78
2022/08/03 09:07:16;;;;;;;3.40;0.90;;;;;;;26.31;55.25;100529.61;107031;1265;22540;-77
2022/08/03 09:09:48;;;;;;;3.50;1.00;;;;;;;26.37;54.93;100533.59;106877;1268;22520;-77
2022/08/03 09:12:20;;;;;;;4.00;1.10;;;;;;;26.42;54.38;100529.16;107031;1265;25286;-78
2022/08/03 09:14:51;;;;;;;5.10;1.20;;;;;;;26.46;54.11;100527.06;106930;1268;22540;-78
2022/08/03 09:17:24;;;;;;;3.40;1.00;;;;;;;26.51;53.86;100524.14;106938;1265;22578;-80
2022/08/03 09:20:09;;;;;;;2.40;0.80;;;;;;;26.56;53.33;100530.43;107590;1258;22493;-80
2022/08/03 09:22:55;;;;;;;4.60;1.00;;;;;;;26.63;52.95;100529.51;107802;1267;22659;-80
2022/08/03 09:25:35;;;;;;;4.00;1.00;;;;;;;26.72;52.51;100527.00;107795;1267;22863;-81
2022/08/03 09:28:13;;;;;;;3.80;0.90;;;;;;;26.81;52.28;100522.95;107845;1267;25312;-80
2022/08/03 09:30:45;;;;;;;4.00;0.80;;;;;;;26.93;52.10;100520.98;107879;1267;22553;-81
2022/08/03 09:33:18;;;;;;;4.80;1.00;;;;;;;27.05;51.67;100520.24;107566;1267;22523;-80
2022/08/03 09:35:50;;;;;;;3.60;0.90;;;;;;;27.13;51.63;100517.20;107561;1267;24386;-80
2022/08/03 09:38:24;;;;;;;3.40;0.80;;;;;;;27.23;50.87;100517.34;107388;1267;24224;-80
2022/08/03 09:40:57;;;;;;;2.50;0.80;;;;;;;27.33;50.62;100520.47;107470;1267;22536;-80
2022/08/03 09:43:45;;;;;;;4.60;0.90;;;;;;;27.37;50.28;100517.94;107700;1267;25412;-80
2022/08/03 09:46:18;;;;;;;2.50;0.70;;;;;;;27.42;49.76;100519.52;107761;1267;22527;-80
2022/08/03 09:48:49;;;;;;;2.60;0.80;;;;;;;27.48;49.74;100511.44;107715;1266;25378;-80
2022/08/03 09:51:26;;;;;;;3.30;0.80;;;;;;;27.54;49.38;100512.79;107594;1267;22565;-80
2022/08/03 09:54:00;;;;;;;6.00;0.70;;;;;;;27.58;49.09;100511.39;107578;1267;22763;-81
2022/08/03 09:56:49;;;;;;;4.70;0.80;;;;;;;27.66;48.68;100512.90;107878;1267;25534;-81
2022/08/03 09:59:28;;;;;;;4.10;1.00;;;;;;;27.68;48.70;100510.95;107865;1267;23194;-81
2022/08/03 10:02:00;;;;;;;2.20;0.80;;;;;;;27.73;48.52;100507.45;107899;1267;22464;-81
2022/08/03 10:04:32;;;;;;;4.00;0.80;;;;;;;27.79;48.24;100507.71;103776;1267;5442198;-81
2022/08/03 10:07:08;;;;;;;4.40;0.90;;;;;;;27.87;47.36;100506.50;107828;1267;22546;-80
2022/08/03 10:09:53;;;;;;;3.60;0.80;;;;;;;27.94;47.51;100506.80;107938;1267;22554;-81
2022/08/03 10:12:25;;;;;;;3.40;0.80;;;;;;;28.03;47.32;100502.61;107874;1267;24232;-81
2022/08/03 10:14:57;;;;;;;4.90;0.90;;;;;;;28.08;46.99;100504.73;107917;1267;22536;-81
2022/08/03 10:17:29;;;;;;;8.90;2.10;;;;;;;28.13;46.74;100498.92;107882;1267;22527;-80
2022/08/03 10:20:00;;;;;;;3.40;0.70;;;;;;;28.19;46.71;100498.42;107913;1267;22576;-81
2022/08/03 10:22:35;;;;;;;5.30;0.70;;;;;;;28.24;46.20;100498.00;107810;1267;22569;-81
2022/08/03 10:25:10;;;;;;;3.90;0.80;;;;;;;28.27;45.66;100496.22;107985;1267;22549;-81
2022/08/03 10:27:45;;;;;;;3.50;0.80;;;;;;;28.30;46.06;100494.70;107780;1267;22573;-81
2022/08/03 10:30:17;;;;;;;4.50;0.80;;;;;;;28.33;45.89;100493.23;107930;1267;22588;-81
2022/08/03 10:32:56;;;;;;;4.60;0.80;;;;;;;28.36;45.91;100489.05;107905;1267;24307;-81
2022/08/03 10:35:30;;;;;;;3.20;0.70;;;;;;;28.37;45.47;100490.28;107912;1267;22558;-80
2022/08/03 10:38:08;;;;;;;7.60;0.90;;;;;;;28.37;45.13;100488.45;108096;1267;22616;-81
2022/08/03 10:40:40;;;;;;;6.60;0.70;;;;;;;28.39;45.23;100485.11;107900;1267;25437;-80
2022/08/03 10:43:18;;;;;;;3.50;0.90;;;;;;;28.41;45.18;100480.94;107992;1267;22467;-81
2022/08/03 10:45:50;;;;;;;4.10;0.70;;;;;;;28.44;45.19;100481.48;107916;1267;22537;-81
2022/08/03 10:48:23;;;;;;;2.80;0.90;;;;;;;28.50;45.19;100479.98;108017;1267;22519;-82
2022/08/03 10:50:55;;;;;;;5.10;1.30;;;;;;;28.57;45.34;100483.10;108008;1267;22525;-80
2022/08/03 10:53:39;;;;;;;2.00;0.70;;;;;;;28.64;45.15;100483.39;107519;1267;22592;-80
2022/08/03 10:59:59;;;;;;;3.90;0.80;;;;;;;28.78;44.50;100479.16;107552;1267;22584;-79
2022/08/03 11:03:13;;;;;;;2.30;0.70;;;;;;;28.85;44.43;100480.05;107656;1267;22618;-79
2022/08/03 11:05:47;;;;;;;5.90;0.70;;;;;;;28.89;44.24;100480.73;107164;1273;25370;-81
2022/08/03 11:08:31;;;;;;;2.60;0.80;;;;;;;28.94;44.07;100482.91;107363;1271;22645;-80
2022/08/03 11:11:25;;;;;;;2.80;0.70;;;;;;;28.97;43.24;100478.73;107099;1273;24424;-81
2022/08/03 11:14:06;;;;;;;2.60;0.70;;;;;;;28.96;43.43;100476.66;107177;1273;22497;-79
2022/08/03 11:16:39;;;;;;;3.20;0.60;;;;;;;28.96;43.56;100476.32;107173;1271;24238;-80
2022/08/03 11:19:13;;;;;;;3.80;0.90;;;;;;;28.94;43.43;100473.48;107126;1271;25380;-80
2022/08/03 11:22:00;;;;;;;4.50;0.80;;;;;;;28.95;43.00;100471.36;107233;1271;22759;-80
2022/08/03 11:25:01;;;;;;;4.10;0.80;;;;;;;28.93;43.08;100468.75;107227;1271;23870;-80
2022/08/03 11:27:36;;;;;;;2.70;0.70;;;;;;;29.00;42.52;100470.19;107078;1271;23993;-80
2022/08/03 11:30:10;;;;;;;7.10;1.80;;;;;;;29.03;42.47;100469.13;107215;1271;24248;-80
2022/08/03 11:32:59;;;;;;;2.50;0.60;;;;;;;29.08;42.68;100468.20;107344;1271;22545;-80
2022/08/03 11:35:34;;;;;;;1.50;0.60;;;;;;;29.12;41.87;100463.02;107199;1271;22920;-79
2022/08/03 11:38:10;;;;;;;3.50;0.80;;;;;;;29.06;41.74;100463.35;107240;1271;22914;-80
2022/08/03 11:40:45;;;;;;;3.40;0.70;;;;;;;29.07;41.27;100462.67;106958;1271;22889;-80
2022/08/03 11:43:47;;;;;;;1.30;0.50;;;;;;;29.06;40.92;100459.39;107476;1267;25318;-81
2022/08/03 11:46:20;;;;;;;3.40;0.60;;;;;;;28.90;40.32;100459.23;107599;1262;25245;-80
2022/08/03 11:48:57;;;;;;;2.50;0.70;;;;;;;28.84;40.14;100461.79;107536;1267;24118;-81
2022/08/03 11:51:31;;;;;;;2.10;0.70;;;;;;;28.77;39.91;100453.94;107550;1268;22701;-79
2022/08/03 11:54:04;;;;;;;2.10;0.80;;;;;;;28.76;40.30;100454.55;107576;1265;23106;-80
2022/08/03 11:56:48;;;;;;;2.20;0.70;;;;;;;28.81;40.36;100451.52;107529;1267;25311;-79